Time;durP1;ratioP1;P1;durP2;ratioP2;P2;SDS_P1;SDS_P2;PMS_P1;PMS_P2;Temp;Humidity;BMP_temperature;BMP_pressure;BME280_temperature;BME280_humidity;BME280_pressure;Samples;Min_cycle;Max_cycle;Signal;HPM_P1;HPM_P2
2021/08/01 00:02:25;;;;;;;1.98;1.77;;;15.40;99.90;;;;;;4951577;28;20594;-78
2021/08/01 00:04:51;;;;;;;1.48;1.35;;;15.40;99.90;;;;;;4950260;29;20198;-78
2021/08/01 00:07:16;;;;;;;1.50;1.40;;;15.50;99.90;;;;;;4950675;28;20205;-79
2021/08/01 00:09:42;;;;;;;4.07;1.70;;;15.50;99.90;;;;;;4949893;29;20202;-79
2021/08/01 00:12:07;;;;;;;2.25;1.52;;;15.50;99.90;;;;;;4949657;29;20205;-78
2021/08/01 00:14:33;;;;;;;1.52;1.42;;;15.50;99.90;;;;;;4951325;29;20213;-79
2021/08/01 00:17:00;;;;;;;1.60;1.42;;;15.50;99.90;;;;;;4950058;28;21301;-78
2021/08/01 00:19:26;;;;;;;1.98;1.60;;;15.50;99.90;;;;;;4950176;29;20185;-78
2021/08/01 00:21:51;;;;;;;1.35;1.25;;;15.40;99.90;;;;;;4949229;29;20182;-78
2021/08/01 00:24:17;;;;;;;1.75;1.63;;;15.40;99.90;;;;;;4950137;29;20313;-78
2021/08/01 00:26:42;;;;;;;1.73;1.50;;;15.30;99.90;;;;;;4950255;29;20206;-79
2021/08/01 00:29:08;;;;;;;1.40;1.30;;;15.10;99.90;;;;;;4948858;29;20655;-78
2021/08/01 00:31:33;;;;;;;1.83;1.55;;;15.10;99.90;;;;;;4949790;29;20216;-78
2021/08/01 00:33:59;;;;;;;1.38;1.27;;;15.10;99.90;;;;;;4948311;28;20265;-78
2021/08/01 00:36:25;;;;;;;1.80;1.70;;;15.00;99.90;;;;;;4949453;28;20233;-79
2021/08/01 00:38:51;;;;;;;1.80;1.55;;;14.90;99.90;;;;;;4948004;29;20213;-79
2021/08/01 00:41:16;;;;;;;1.80;1.70;;;14.80;99.90;;;;;;4950844;28;20177;-79
2021/08/01 00:43:42;;;;;;;1.52;1.42;;;14.90;99.90;;;;;;4951359;28;20190;-79
2021/08/01 00:46:07;;;;;;;1.60;1.50;;;14.80;99.90;;;;;;4951381;28;20278;-79
2021/08/01 00:48:36;;;;;;;1.40;1.30;;;14.80;99.90;;;;;;4950291;29;20189;-80
2021/08/01 00:51:02;;;;;;;3.17;1.75;;;14.80;99.90;;;;;;4950804;29;20551;-79
2021/08/01 00:53:28;;;;;;;2.38;1.77;;;14.70;99.90;;;;;;4949888;29;20185;-79
2021/08/01 00:55:53;;;;;;;2.75;1.63;;;14.80;99.90;;;;;;4950172;29;20256;-80
2021/08/01 00:58:19;;;;;;;2.15;1.67;;;14.80;99.90;;;;;;4951196;28;20314;-79
2021/08/01 01:03:20;;;;;;;1.50;1.40;;;14.60;99.90;;;;;;4951731;29;20189;-80
2021/08/01 01:06:13;;;;;;;1.70;1.60;;;14.50;99.90;;;;;;4952186;28;20652;-80
2021/08/01 01:08:54;;;;;;;2.90;1.55;;;14.40;99.90;;;;;;4928028;29;20533;-79
2021/08/01 01:11:23;;;;;;;1.73;1.63;;;14.30;99.90;;;;;;4952125;29;20178;-79
2021/08/01 01:13:54;;;;;;;1.60;1.50;;;14.40;99.90;;;;;;4951066;29;20220;-79
2021/08/01 01:16:19;;;;;;;2.33;1.45;;;14.30;99.90;;;;;;4953077;29;20284;-79
2021/08/01 01:18:51;;;;;;;1.75;1.65;;;14.30;99.90;;;;;;4951770;28;20265;-79
2021/08/01 01:21:42;;;;;;;2.53;1.70;;;14.30;99.90;;;;;;4953281;29;20196;-79
2021/08/01 01:24:18;;;;;;;1.55;1.17;;;14.20;99.90;;;;;;4953223;29;20174;-79
2021/08/01 01:27:02;;;;;;;2.00;1.42;;;14.20;99.90;;;;;;4953551;28;20212;-79
2021/08/01 01:29:31;;;;;;;2.25;2.05;;;14.10;99.90;;;;;;4953630;29;20193;-79
2021/08/01 01:32:05;;;;;;;1.98;1.77;;;14.10;99.90;;;;;;4967427;28;20839;-78
2021/08/01 01:34:36;;;;;;;2.70;2.25;;;14.10;99.90;;;;;;4950926;29;20194;-80
2021/08/01 01:37:09;;;;;;;2.30;1.90;;;14.10;99.90;;;;;;4952460;28;20575;-78
2021/08/01 01:39:38;;;;;;;1.85;1.70;;;14.10;99.90;;;;;;4952795;29;20192;-78
2021/08/01 01:42:06;;;;;;;1.83;1.30;;;14.10;99.90;;;;;;4951201;29;20186;-79
2021/08/01 01:44:34;;;;;;;3.55;1.45;;;14.10;99.90;;;;;;4951632;29;20199;-80
2021/08/01 01:47:02;;;;;;;1.75;1.63;;;14.10;99.90;;;;;;4949943;29;20209;-79
2021/08/01 01:49:28;;;;;;;1.65;1.45;;;14.30;99.90;;;;;;4951524;29;20197;-80
2021/08/01 01:51:55;;;;;;;1.80;1.70;;;14.30;99.90;;;;;;4950326;28;20193;-81
2021/08/01 01:54:21;;;;;;;2.22;2.03;;;14.40;99.90;;;;;;4949439;29;20198;-78
2021/08/01 01:56:48;;;;;;;2.10;1.92;;;14.40;99.90;;;;;;4951391;28;20205;-79
2021/08/01 01:59:15;;;;;;;2.00;1.77;;;14.50;99.90;;;;;;4951286;29;20186;-79
2021/08/01 02:01:41;;;;;;;1.90;1.80;;;14.50;99.90;;;;;;4949748;28;20557;-79
2021/08/01 02:04:07;;;;;;;2.08;1.90;;;14.60;99.90;;;;;;4950664;28;20186;-79
2021/08/01 02:06:34;;;;;;;2.17;1.98;;;14.60;99.90;;;;;;4949488;29;20204;-79
2021/08/01 02:09:15;;;;;;;2.20;1.60;;;14.70;99.90;;;;;;4955778;28;20209;-79
2021/08/01 02:11:53;;;;;;;2.55;1.90;;;14.80;99.90;;;;;;4949546;29;20587;-79
2021/08/01 02:14:29;;;;;;;2.10;1.90;;;14.70;99.90;;;;;;4948746;28;20200;-79
2021/08/01 02:17:02;;;;;;;3.92;1.85;;;14.70;99.90;;;;;;4949044;29;20211;-78
2021/08/01 02:19:30;;;;;;;2.20;2.00;;;14.70;99.90;;;;;;4950336;29;20209;-79
2021/08/01 02:21:56;;;;;;;1.83;1.70;;;14.70;99.90;;;;;;4950108;28;20177;-77
2021/08/01 02:24:22;;;;;;;1.88;1.67;;;14.70;99.90;;;;;;4950436;29;20678;-78
2021/08/01 02:26:48;;;;;;;2.05;1.80;;;14.70;99.90;;;;;;4950358;28;20204;-79
2021/08/01 02:29:15;;;;;;;2.20;1.80;;;14.70;99.90;;;;;;4964966;28;20305;-79
2021/08/01 02:31:43;;;;;;;2.08;1.88;;;14.70;99.90;;;;;;4952327;28;20266;-78
2021/08/01 02:34:10;;;;;;;2.63;2.08;;;14.80;99.90;;;;;;4966122;23;20185;-66
2021/08/01 02:36:37;;;;;;;2.35;1.98;;;14.60;99.90;;;;;;4930401;29;20216;-69
2021/08/01 02:39:03;;;;;;;2.20;2.00;;;14.50;99.90;;;;;;4930894;29;20170;-70
2021/08/01 02:41:35;;;;;;;1.95;1.60;;;14.40;99.90;;;;;;4930665;29;20221;-69
2021/08/01 02:44:17;;;;;;;2.72;1.63;;;14.40;99.90;;;;;;4930598;29;20166;-69
2021/08/01 02:46:44;;;;;;;2.08;1.88;;;14.40;99.90;;;;;;4930682;29;20213;-69
2021/08/01 02:49:26;;;;;;;2.30;2.10;;;14.40;99.90;;;;;;4931648;29;20221;-69
2021/08/01 02:51:53;;;;;;;2.38;1.75;;;14.30;99.90;;;;;;4930944;29;20383;-69
2021/08/01 02:54:23;;;;;;;2.33;1.73;;;14.30;99.90;;;;;;4930224;29;20860;-68
2021/08/01 02:56:55;;;;;;;1.80;1.70;;;14.30;99.90;;;;;;4930953;29;20202;-68
2021/08/01 02:59:23;;;;;;;1.77;1.58;;;14.20;99.90;;;;;;4930938;29;20182;-68
2021/08/01 03:01:54;;;;;;;2.70;1.98;;;14.10;99.90;;;;;;4930829;29;20190;-67
2021/08/01 03:04:23;;;;;;;2.08;1.88;;;14.00;99.90;;;;;;4930152;29;20170;-69
2021/08/01 03:06:50;;;;;;;1.98;1.65;;;14.10;99.90;;;;;;4930544;29;20210;-70
2021/08/01 03:09:15;;;;;;;1.70;1.58;;;14.00;99.90;;;;;;4930604;29;20289;-67
2021/08/01 03:11:41;;;;;;;2.38;2.17;;;14.00;99.90;;;;;;4930627;29;20265;-67
2021/08/01 03:14:06;;;;;;;2.05;1.80;;;13.80;99.90;;;;;;4929480;29;20182;-67
2021/08/01 03:16:32;;;;;;;2.33;1.73;;;13.70;99.90;;;;;;4929720;29;20206;-69
2021/08/01 03:18:58;;;;;;;3.90;2.17;;;13.60;99.90;;;;;;4929837;29;20543;-70
2021/08/01 03:21:23;;;;;;;2.30;2.03;;;13.50;99.90;;;;;;4930000;29;20261;-67
2021/08/01 03:23:49;;;;;;;2.50;2.30;;;13.60;99.90;;;;;;4929152;29;20256;-68
2021/08/01 03:26:15;;;;;;;2.10;1.90;;;13.50;99.90;;;;;;4928421;29;20205;-69
2021/08/01 03:28:40;;;;;;;2.50;1.90;;;13.60;99.90;;;;;;4929737;29;20229;-69
2021/08/01 03:31:06;;;;;;;3.03;2.17;;;13.50;99.90;;;;;;4929772;29;20273;-71
2021/08/01 03:33:31;;;;;;;2.42;2.10;;;13.60;99.90;;;;;;4928169;29;20256;-69
2021/08/01 03:35:57;;;;;;;3.95;2.08;;;13.70;99.90;;;;;;4928978;29;20229;-71
2021/08/01 03:38:23;;;;;;;2.10;1.80;;;13.70;99.90;;;;;;4929799;29;20224;-68
2021/08/01 03:40:51;;;;;;;2.17;1.90;;;13.70;99.90;;;;;;4944135;29;20486;-70
2021/08/01 03:43:17;;;;;;;2.10;1.90;;;13.80;99.90;;;;;;4929312;29;20205;-69
2021/08/01 03:45:43;;;;;;;2.28;2.10;;;13.70;99.90;;;;;;4927477;29;20511;-68
2021/08/01 03:48:09;;;;;;;2.63;2.03;;;13.80;99.90;;;;;;4929388;29;20198;-68
2021/08/01 03:50:35;;;;;;;1.88;1.70;;;13.80;99.90;;;;;;4929477;29;20212;-68
2021/08/01 03:53:00;;;;;;;3.35;2.00;;;13.80;99.90;;;;;;4929188;29;20185;-70
2021/08/01 03:55:26;;;;;;;1.95;1.73;;;13.80;99.90;;;;;;4928851;29;20202;-69
2021/08/01 03:57:52;;;;;;;2.67;2.28;;;14.00;99.90;;;;;;4929099;29;20681;-70
2021/08/01 04:00:17;;;;;;;2.05;1.85;;;14.10;99.90;;;;;;4929488;29;20650;-69
2021/08/01 04:02:43;;;;;;;1.85;1.60;;;14.10;99.90;;;;;;4929352;29;21148;-69
2021/08/01 04:05:09;;;;;;;2.90;1.77;;;14.10;99.90;;;;;;4929122;29;20626;-67
2021/08/01 04:07:35;;;;;;;2.22;1.98;;;14.10;99.90;;;;;;4929174;29;20259;-69
2021/08/01 04:10:01;;;;;;;2.35;1.80;;;14.30;99.90;;;;;;4928836;29;20183;-70
2021/08/01 04:12:26;;;;;;;2.30;1.65;;;14.30;99.90;;;;;;4929100;29;20198;-68
2021/08/01 04:14:52;;;;;;;2.05;1.83;;;14.30;99.90;;;;;;4927862;29;20620;-68
2021/08/01 04:17:18;;;;;;;2.40;1.85;;;14.30;99.90;;;;;;4928944;29;20213;-70
2021/08/01 04:19:47;;;;;;;1.90;1.80;;;14.30;99.90;;;;;;4928828;29;20178;-69
2021/08/01 04:22:16;;;;;;;2.92;1.88;;;14.30;99.90;;;;;;4928880;29;20194;-70
2021/08/01 04:24:42;;;;;;;2.00;1.60;;;14.30;99.90;;;;;;4928075;29;20186;-70
2021/08/01 04:27:08;;;;;;;2.28;1.70;;;14.30;99.90;;;;;;4928758;29;20225;-70
2021/08/01 04:29:34;;;;;;;1.80;1.55;;;14.40;99.90;;;;;;4927615;29;20221;-69
2021/08/01 04:32:00;;;;;;;2.13;1.90;;;14.50;99.90;;;;;;4928866;29;20182;-70
2021/08/01 04:34:26;;;;;;;2.10;1.90;;;14.60;99.90;;;;;;4927719;29;20606;-69
2021/08/01 04:36:53;;;;;;;2.42;2.00;;;14.70;99.90;;;;;;4928878;29;20265;-68
2021/08/01 04:39:18;;;;;;;3.28;2.15;;;14.90;99.90;;;;;;4928710;29;20179;-67
2021/08/01 04:41:44;;;;;;;1.80;1.60;;;15.10;99.90;;;;;;4928498;29;20191;-70
2021/08/01 04:44:10;;;;;;;2.50;2.05;;;15.30;99.90;;;;;;4927855;29;20179;-70
2021/08/01 04:46:36;;;;;;;1.73;1.50;;;15.50;99.90;;;;;;4928238;29;20337;-68
2021/08/01 04:49:03;;;;;;;1.90;1.80;;;15.60;99.90;;;;;;4928622;29;20181;-69
2021/08/01 04:51:28;;;;;;;2.65;1.88;;;15.90;99.90;;;;;;4928221;29;20409;-67
2021/08/01 04:53:54;;;;;;;2.78;1.83;;;16.00;99.90;;;;;;4927054;29;20260;-69
2021/08/01 04:56:19;;;;;;;2.00;1.80;;;16.10;99.90;;;;;;4927500;29;20220;-68
2021/08/01 04:58:45;;;;;;;2.03;1.80;;;16.30;99.90;;;;;;4928465;29;20254;-68
2021/08/01 05:01:12;;;;;;;1.63;1.52;;;16.60;99.90;;;;;;4929067;29;20229;-68
2021/08/01 05:03:38;;;;;;;1.63;1.40;;;17.30;99.90;;;;;;4928389;29;20526;-67
2021/08/01 05:06:04;;;;;;;2.53;1.48;;;18.40;99.90;;;;;;4928049;29;20198;-68
2021/08/01 05:08:30;;;;;;;1.90;1.75;;;19.30;99.90;;;;;;4929101;29;20189;-71
2021/08/01 05:10:55;;;;;;;2.42;1.50;;;19.50;99.90;;;;;;4928830;29;20639;-67
2021/08/01 05:13:21;;;;;;;1.95;1.63;;;19.40;99.90;;;;;;4927044;29;20408;-69
2021/08/01 05:15:46;;;;;;;1.63;1.52;;;19.30;99.90;;;;;;4927752;29;20202;-67
2021/08/01 05:18:12;;;;;;;2.15;1.60;;;19.30;99.90;;;;;;4928334;29;20540;-70
2021/08/01 05:20:42;;;;;;;2.10;1.80;;;19.20;99.90;;;;;;4928547;29;20289;-70
2021/08/01 05:23:08;;;;;;;2.30;1.83;;;19.00;99.90;;;;;;4928708;29;20263;-71
2021/08/01 05:25:34;;;;;;;2.30;1.95;;;18.70;99.90;;;;;;4927873;29;20206;-69
2021/08/01 05:27:59;;;;;;;1.90;1.70;;;18.50;99.90;;;;;;4928290;29;20336;-69
2021/08/01 05:30:25;;;;;;;2.08;1.67;;;18.30;99.90;;;;;;4928617;29;20537;-68
2021/08/01 05:32:50;;;;;;;2.20;2.00;;;18.10;99.90;;;;;;4928103;29;20186;-68
2021/08/01 05:35:16;;;;;;;3.38;2.25;;;17.90;99.90;;;;;;4927798;29;20206;-69
2021/08/01 05:37:42;;;;;;;2.15;1.85;;;17.80;99.90;;;;;;4927873;29;20225;-69
2021/08/01 05:40:10;;;;;;;2.15;1.83;;;17.70;99.90;;;;;;4928106;29;20242;-68
2021/08/01 05:42:36;;;;;;;1.75;1.65;;;17.70;99.90;;;;;;4927413;29;20182;-70
2021/08/01 05:45:02;;;;;;;2.05;1.83;;;17.60;99.90;;;;;;4926700;29;20216;-70
2021/08/01 05:47:28;;;;;;;2.25;2.05;;;17.70;99.90;;;;;;4927415;29;20758;-71
2021/08/01 05:49:53;;;;;;;1.80;1.70;;;17.80;99.90;;;;;;4927249;29;20193;-70
2021/08/01 05:52:19;;;;;;;2.03;1.80;;;18.00;99.90;;;;;;4927506;29;20763;-69
2021/08/01 05:54:44;;;;;;;2.17;2.00;;;18.40;99.90;;;;;;4926285;29;20661;-70
2021/08/01 05:57:10;;;;;;;2.08;1.80;;;18.80;99.90;;;;;;4925799;29;20218;-70
2021/08/01 05:59:36;;;;;;;2.42;1.70;;;19.10;99.90;;;;;;4927485;29;20186;-68
2021/08/01 06:02:01;;;;;;;1.75;1.63;;;19.40;99.90;;;;;;4927378;29;20743;-69
2021/08/01 06:04:27;;;;;;;2.67;2.22;;;19.60;99.90;;;;;;4926756;29;20182;-70
2021/08/01 06:06:53;;;;;;;2.30;1.92;;;19.70;99.90;;;;;;4926703;29;20210;-71
2021/08/01 06:09:18;;;;;;;1.92;1.73;;;19.80;99.90;;;;;;4926458;29;20186;-69
2021/08/01 06:11:44;;;;;;;1.73;1.63;;;19.90;99.90;;;;;;4927406;29;20177;-70
2021/08/01 06:14:09;;;;;;;1.85;1.70;;;20.00;99.90;;;;;;4926693;29;20630;-71
2021/08/01 06:16:35;;;;;;;3.65;2.33;;;20.10;99.90;;;;;;4926950;29;20202;-68
2021/08/01 06:19:01;;;;;;;2.20;2.00;;;20.40;99.90;;;;;;4927162;29;20649;-70
2021/08/01 06:21:29;;;;;;;2.60;2.10;;;20.50;99.90;;;;;;4926928;29;20186;-71
2021/08/01 06:23:55;;;;;;;2.20;1.90;;;20.80;99.90;;;;;;4926482;29;20507;-70
2021/08/01 06:26:22;;;;;;;2.38;1.80;;;21.00;99.90;;;;;;4926920;29;20217;-70
2021/08/01 06:28:49;;;;;;;2.25;1.90;;;21.10;99.90;;;;;;4926702;29;20190;-72
2021/08/01 06:31:16;;;;;;;2.78;1.92;;;21.50;99.90;;;;;;4926749;29;20191;-69
2021/08/01 06:33:42;;;;;;;2.53;1.75;;;21.70;99.90;;;;;;4925056;29;20237;-70
2021/08/01 06:36:09;;;;;;;2.90;1.92;;;21.70;99.90;;;;;;4926534;29;20222;-70
2021/08/01 06:38:36;;;;;;;2.42;1.98;;;21.60;99.90;;;;;;4926888;29;20692;-68
2021/08/01 06:41:02;;;;;;;2.65;2.40;;;21.50;99.90;;;;;;4927112;29;20182;-68
2021/08/01 06:43:28;;;;;;;5.45;2.50;;;21.40;99.90;;;;;;4926788;29;20182;-68
2021/08/01 06:45:54;;;;;;;3.35;2.55;;;21.20;99.90;;;;;;4926516;29;20258;-68
2021/08/01 06:48:20;;;;;;;2.90;1.77;;;21.50;99.90;;;;;;4926938;29;20539;-67
2021/08/01 06:50:46;;;;;;;2.28;1.88;;;21.60;99.90;;;;;;4927054;29;20642;-68
2021/08/01 06:53:11;;;;;;;3.78;2.00;;;21.90;99.90;;;;;;4926995;29;20191;-69
2021/08/01 06:55:37;;;;;;;3.70;2.10;;;22.20;99.90;;;;;;4925950;29;20221;-71
2021/08/01 06:58:03;;;;;;;3.80;2.40;;;22.30;99.90;;;;;;4927074;29;20233;-68
2021/08/01 07:00:29;;;;;;;2.38;2.03;;;22.10;99.90;;;;;;4926557;29;20198;-72
2021/08/01 07:02:58;;;;;;;2.25;1.80;;;22.10;99.90;;;;;;4926730;29;20217;-70
2021/08/01 07:05:26;;;;;;;2.20;2.00;;;21.90;99.90;;;;;;4926407;29;20261;-70
2021/08/01 07:07:52;;;;;;;2.10;1.85;;;21.70;99.90;;;;;;4927640;29;20179;-69
2021/08/01 07:10:18;;;;;;;2.10;1.85;;;21.50;99.90;;;;;;4927801;29;20182;-72
2021/08/01 07:12:46;;;;;;;1.80;1.70;;;21.20;99.90;;;;;;4926833;29;20278;-71
2021/08/01 07:15:13;;;;;;;1.80;1.70;;;21.00;99.90;;;;;;4925906;29;20186;-70
2021/08/01 07:17:40;;;;;;;3.05;1.92;;;21.10;99.90;;;;;;4928948;29;20228;-73
2021/08/01 07:20:08;;;;;;;2.10;1.90;;;21.20;99.90;;;;;;4930270;29;20178;-70
2021/08/01 07:22:34;;;;;;;2.10;1.70;;;21.10;99.90;;;;;;4930063;29;20186;-72
2021/08/01 07:25:01;;;;;;;2.78;2.03;;;21.10;99.90;;;;;;4929416;29;20737;-68
2021/08/01 07:27:26;;;;;;;1.95;1.65;;;21.10;99.90;;;;;;4929741;29;20261;-70
2021/08/01 07:29:52;;;;;;;2.08;1.70;;;21.30;99.90;;;;;;4928304;29;20213;-67
2021/08/01 07:32:17;;;;;;;2.38;2.00;;;21.30;99.90;;;;;;4929530;29;20186;-70
2021/08/01 07:34:43;;;;;;;2.35;1.88;;;21.30;99.90;;;;;;4928417;29;20561;-68
2021/08/01 07:37:09;;;;;;;2.38;2.05;;;21.40;99.90;;;;;;4929565;29;20218;-71
2021/08/01 07:39:35;;;;;;;2.63;1.75;;;21.40;99.90;;;;;;4929888;29;20193;-68
2021/08/01 07:42:00;;;;;;;3.55;2.53;;;21.50;99.90;;;;;;4928248;29;20185;-69
2021/08/01 07:44:29;;;;;;;2.75;1.80;;;21.40;99.90;;;;;;4928875;29;20226;-71
2021/08/01 07:46:54;;;;;;;2.25;1.80;;;21.40;99.90;;;;;;4929210;29;20194;-70
2021/08/01 07:49:21;;;;;;;2.30;2.10;;;21.40;99.90;;;;;;4928138;29;20193;-70
2021/08/01 07:51:47;;;;;;;3.60;1.90;;;21.50;99.90;;;;;;4929399;29;20186;-70
2021/08/01 07:54:12;;;;;;;2.22;1.60;;;21.50;99.90;;;;;;4928475;29;20182;-72
2021/08/01 07:56:38;;;;;;;1.92;1.73;;;21.30;99.90;;;;;;4929386;29;20203;-69
2021/08/01 07:59:04;;;;;;;1.95;1.77;;;21.30;99.90;;;;;;4928838;29;20210;-69
2021/08/01 08:01:29;;;;;;;2.22;2.03;;;21.60;99.90;;;;;;4929247;29;20689;-67
2021/08/01 08:03:55;;;;;;;1.80;1.65;;;21.60;99.90;;;;;;4928350;29;20202;-69
2021/08/01 08:06:20;;;;;;;2.05;1.50;;;21.60;99.90;;;;;;4927783;29;20277;-71
2021/08/01 08:08:46;;;;;;;3.55;1.85;;;21.90;99.90;;;;;;4927577;29;20242;-70
2021/08/01 08:11:12;;;;;;;2.38;1.75;;;21.80;99.90;;;;;;4929158;29;20194;-69
2021/08/01 08:13:37;;;;;;;2.03;1.40;;;22.10;99.90;;;;;;4928381;29;20205;-69
2021/08/01 08:16:03;;;;;;;2.08;1.77;;;22.30;99.90;;;;;;4928113;29;20212;-70
2021/08/01 08:18:29;;;;;;;2.75;1.77;;;22.40;99.90;;;;;;4928838;29;20224;-71
2021/08/01 08:20:54;;;;;;;2.10;1.63;;;22.50;99.90;;;;;;4928277;29;20262;-69
2021/08/01 08:23:20;;;;;;;1.50;1.40;;;22.70;99.90;;;;;;4928603;29;20209;-71
2021/08/01 08:25:45;;;;;;;2.65;1.75;;;22.70;99.90;;;;;;4927733;29;20198;-69
2021/08/01 08:28:11;;;;;;;2.22;1.85;;;22.50;99.90;;;;;;4928000;29;20218;-69
2021/08/01 08:30:37;;;;;;;2.33;1.50;;;22.50;99.90;;;;;;4928449;29;20649;-70
2021/08/01 08:33:04;;;;;;;2.25;1.67;;;22.60;99.90;;;;;;4927274;29;20182;-70
2021/08/01 08:35:30;;;;;;;1.77;1.65;;;22.40;99.90;;;;;;4926268;29;20218;-71
2021/08/01 08:37:55;;;;;;;1.88;1.70;;;22.40;99.90;;;;;;4928616;29;20994;-69
2021/08/01 08:40:22;;;;;;;1.70;1.60;;;22.30;99.90;;;;;;4928115;29;20190;-69
2021/08/01 08:42:49;;;;;;;2.33;1.63;;;22.40;99.90;;;;;;4928301;29;20293;-71
2021/08/01 08:45:15;;;;;;;1.50;1.40;;;22.60;99.90;;;;;;4926696;29;20178;-69
2021/08/01 08:47:49;;;;;;;2.15;1.55;;;22.90;99.90;;;;;;4928281;29;20175;-70
2021/08/01 08:50:20;;;;;;;2.15;1.33;;;23.00;99.90;;;;;;4928474;29;20190;-70
2021/08/01 08:52:47;;;;;;;1.40;1.30;;;23.00;99.90;;;;;;4926840;29;20285;-70
2021/08/01 08:55:15;;;;;;;1.55;1.35;;;23.10;99.90;;;;;;4926203;29;20186;-70
2021/08/01 08:57:53;;;;;;;1.73;1.38;;;23.20;99.90;;;;;;4927676;29;20214;-68
2021/08/01 09:00:21;;;;;;;1.70;1.42;;;23.00;99.90;;;;;;4928076;29;20306;-68
2021/08/01 09:02:48;;;;;;;2.47;1.38;;;22.70;99.90;;;;;;4927961;29;20175;-70
2021/08/01 09:05:14;;;;;;;1.42;1.30;;;22.80;99.90;;;;;;4927374;29;20178;-71
2021/08/01 09:07:40;;;;;;;2.35;1.20;;;22.80;99.90;;;;;;4927867;29;20186;-69
2021/08/01 09:10:08;;;;;;;1.35;1.05;;;22.90;99.90;;;;;;4927371;29;20217;-69
2021/08/01 09:13:00;;;;;;;1.35;0.95;;;23.10;99.90;;;;;;4927433;29;20198;-68
2021/08/01 09:15:28;;;;;;;1.48;1.30;;;23.00;99.90;;;;;;4924932;29;20328;-70
2021/08/01 09:17:55;;;;;;;1.20;1.10;;;23.00;99.90;;;;;;4927821;29;20198;-71
2021/08/01 09:20:25;;;;;;;1.60;1.42;;;23.10;99.90;;;;;;4927800;29;20210;-70
2021/08/01 09:23:09;;;;;;;1.85;1.30;;;23.10;99.90;;;;;;4926936;29;20196;-68
2021/08/01 09:25:55;;;;;;;1.67;1.20;;;23.10;99.90;;;;;;4926191;29;20206;-68
2021/08/01 09:28:25;;;;;;;3.40;1.48;;;23.10;99.90;;;;;;4927367;29;20194;-68
2021/08/01 09:30:53;;;;;;;1.98;1.10;;;23.20;99.90;;;;;;4926816;29;20206;-68
2021/08/01 09:33:39;;;;;;;1.25;1.15;;;23.30;99.90;;;;;;4927008;29;20265;-69
2021/08/01 09:36:08;;;;;;;1.35;1.25;;;23.10;99.90;;;;;;4926262;29;20582;-69
2021/08/01 09:38:52;;;;;;;1.45;1.27;;;23.00;99.90;;;;;;4926399;29;20653;-71
2021/08/01 09:41:36;;;;;;;1.55;1.45;;;22.70;99.90;;;;;;4925694;29;20201;-72
2021/08/01 09:44:08;;;;;;;1.98;1.65;;;22.80;99.90;;;;;;4926461;29;20199;-69
2021/08/01 09:46:46;;;;;;;1.65;1.20;;;22.70;99.90;;;;;;4927039;29;20578;-71
2021/08/01 09:49:19;;;;;;;1.40;1.30;;;22.90;99.90;;;;;;4927243;29;20567;-68
2021/08/01 09:51:48;;;;;;;2.55;1.52;;;23.00;99.90;;;;;;4927267;29;20646;-70
2021/08/01 09:54:15;;;;;;;1.80;1.70;;;23.10;99.90;;;;;;4925992;29;20642;-72
2021/08/01 09:56:55;;;;;;;2.97;2.30;;;23.20;99.90;;;;;;4927218;29;20693;-71
2021/08/01 09:59:24;;;;;;;3.25;2.13;;;23.20;99.90;;;;;;4927113;29;20273;-72
2021/08/01 10:01:55;;;;;;;2.88;1.85;;;23.30;99.90;;;;;;4927012;29;20178;-72
2021/08/01 10:04:23;;;;;;;3.08;2.50;;;23.50;99.90;;;;;;4925473;29;20186;-68
2021/08/01 10:07:13;;;;;;;2.40;2.00;;;23.50;99.90;;;;;;4926969;29;20201;-69
2021/08/01 10:09:40;;;;;;;2.33;2.13;;;23.60;99.90;;;;;;4926858;29;20190;-72
2021/08/01 10:12:07;;;;;;;3.15;2.17;;;24.00;99.90;;;;;;4926592;29;20190;-70
2021/08/01 10:14:34;;;;;;;2.75;2.20;;;24.00;99.90;;;;;;4925914;29;20178;-70
2021/08/01 10:16:59;;;;;;;1.90;1.70;;;24.10;99.90;;;;;;4926987;29;20533;-73
2021/08/01 10:19:26;;;;;;;2.40;2.15;;;24.40;99.90;;;;;;4926731;29;20212;-70
2021/08/01 10:21:57;;;;;;;1.83;1.63;;;24.50;99.90;;;;;;4926432;29;20237;-71
2021/08/01 10:24:26;;;;;;;2.08;1.48;;;24.70;99.90;;;;;;4925479;29;20186;-70
2021/08/01 10:26:53;;;;;;;1.58;1.48;;;24.90;99.90;;;;;;4926301;29;20226;-69
2021/08/01 10:29:34;;;;;;;1.40;1.30;;;25.20;99.90;;;;;;4926587;29;20686;-70
2021/08/01 10:32:09;;;;;;;1.50;1.40;;;25.30;99.90;;;;;;4926320;29;20202;-71
2021/08/01 10:35:05;;;;;;;1.60;1.50;;;25.20;99.90;;;;;;4925655;29;20216;-71
2021/08/01 10:37:48;;;;;;;1.45;1.02;;;25.30;99.90;;;;;;4924386;29;20242;-70
2021/08/01 10:40:19;;;;;;;1.80;1.23;;;25.50;99.90;;;;;;4926653;29;20175;-71
2021/08/01 10:42:50;;;;;;;1.67;0.90;;;25.50;99.90;;;;;;4926502;29;20183;-70
2021/08/01 10:45:20;;;;;;;1.15;1.02;;;25.30;99.90;;;;;;4925847;29;20220;-73
2021/08/01 10:47:48;;;;;;;1.10;1.00;;;25.40;99.90;;;;;;4926118;29;20193;-71
2021/08/01 10:50:20;;;;;;;1.20;1.10;;;25.60;99.90;;;;;;4926863;29;20244;-70
2021/08/01 10:52:46;;;;;;;1.92;1.15;;;25.50;99.90;;;;;;4929345;29;20301;-70
2021/08/01 10:55:22;;;;;;;1.13;1.02;;;25.30;99.90;;;;;;4929309;29;20292;-70
2021/08/01 10:58:33;;;;;;;1.17;1.10;;;25.30;99.90;;;;;;4930160;29;20201;-71
2021/08/01 11:01:07;;;;;;;0.90;0.90;;;25.10;99.90;;;;;;4890035;29;20267;-71
2021/08/01 11:03:34;;;;;;;1.30;1.20;;;24.90;99.90;;;;;;4926662;29;20201;-69
2021/08/01 11:06:01;;;;;;;1.30;1.20;;;24.70;99.90;;;;;;4928654;29;20220;-69
2021/08/01 11:38:32;;;;;;;1.38;1.10;;;24.60;99.90;;;;;;5618627;23;20248;-77
2021/08/01 11:40:57;;;;;;;0.90;0.82;;;24.90;99.90;;;;;;4930335;29;20183;-77
2021/08/01 11:43:24;;;;;;;1.10;1.00;;;25.20;99.90;;;;;;4932640;29;20611;-77
2021/08/01 11:46:00;;;;;;;1.13;0.98;;;25.20;99.90;;;;;;4932623;29;20202;-77
2021/08/01 11:48:27;;;;;;;0.80;0.80;;;25.50;99.90;;;;;;4932157;29;20294;-78
2021/08/01 11:50:55;;;;;;;1.42;1.33;;;26.10;99.90;;;;;;4932643;29;20182;-76
2021/08/01 11:53:21;;;;;;;2.03;1.20;;;26.40;99.90;;;;;;4931701;29;20191;-77
2021/08/01 11:55:47;;;;;;;1.20;0.95;;;26.60;99.90;;;;;;4931924;29;20202;-76
2021/08/01 11:58:14;;;;;;;1.10;1.00;;;26.60;99.90;;;;;;4930678;29;20853;-77
2021/08/01 12:00:40;;;;;;;0.80;0.70;;;26.50;99.90;;;;;;4931100;29;20768;-77
2021/08/01 12:03:08;;;;;;;0.77;0.77;;;26.40;99.90;;;;;;4930105;29;20315;-77
2021/08/01 12:05:46;;;;;;;1.42;1.10;;;26.70;99.20;;;;;;4930992;29;20234;-76
2021/08/01 12:08:35;;;;;;;1.00;1.00;;;26.90;98.90;;;;;;4946848;29;20190;-77
2021/08/01 12:11:17;;;;;;;1.27;1.17;;;27.10;98.90;;;;;;4931950;29;20182;-77
2021/08/01 12:14:12;;;;;;;1.10;1.10;;;27.20;97.40;;;;;;4931386;29;21062;-77
2021/08/01 12:16:50;;;;;;;0.95;0.95;;;27.20;98.80;;;;;;4930015;29;20214;-77
2021/08/01 12:19:18;;;;;;;1.65;1.23;;;27.20;99.20;;;;;;4931198;29;20728;-77
2021/08/01 12:21:45;;;;;;;1.30;1.20;;;27.00;99.10;;;;;;4931773;29;20745;-77
2021/08/01 12:24:28;;;;;;;3.13;1.50;;;26.90;97.00;;;;;;4931187;29;20190;-76
2021/08/01 12:27:01;;;;;;;1.38;1.27;;;26.70;97.00;;;;;;4930343;29;20199;-77
2021/08/01 12:29:50;;;;;;;0.95;0.95;;;26.20;97.90;;;;;;4930176;29;20190;-76
2021/08/01 12:32:22;;;;;;;1.20;1.10;;;25.80;98.90;;;;;;4931297;29;20187;-77
2021/08/01 12:34:49;;;;;;;1.95;0.98;;;25.70;99.30;;;;;;4931752;29;21052;-77
2021/08/01 12:37:15;;;;;;;1.17;1.02;;;25.10;99.30;;;;;;4931575;29;20198;-77
2021/08/01 12:39:51;;;;;;;1.27;1.17;;;24.90;99.90;;;;;;4930807;29;20257;-76
2021/08/01 12:42:20;;;;;;;1.50;1.40;;;24.50;99.90;;;;;;4931664;29;20192;-77
2021/08/01 12:44:59;;;;;;;1.30;1.20;;;24.50;99.90;;;;;;4930921;29;20179;-76
2021/08/01 12:47:27;;;;;;;0.98;0.88;;;24.50;99.90;;;;;;4930383;29;20214;-76
2021/08/01 12:49:54;;;;;;;1.95;1.65;;;24.50;99.90;;;;;;4929856;29;20557;-76
2021/08/01 12:52:22;;;;;;;1.60;1.40;;;24.60;99.90;;;;;;4930637;29;20249;-77
2021/08/01 12:54:50;;;;;;;1.40;1.30;;;24.70;99.90;;;;;;4931094;29;20183;-77
2021/08/01 12:57:15;;;;;;;1.17;1.08;;;24.90;99.90;;;;;;4927305;29;20214;-77
2021/08/01 12:59:41;;;;;;;1.40;1.30;;;25.20;99.90;;;;;;4925883;29;20739;-75
2021/08/01 13:02:07;;;;;;;1.50;1.40;;;25.50;99.90;;;;;;4927647;29;20186;-76
2021/08/01 13:04:44;;;;;;;1.30;1.20;;;26.00;99.90;;;;;;4928711;29;20567;-77
2021/08/01 13:07:10;;;;;;;1.30;1.20;;;26.00;99.20;;;;;;4927830;29;20213;-76
2021/08/01 13:09:37;;;;;;;1.40;1.30;;;26.20;98.50;;;;;;4928519;29;20192;-76
2021/08/01 13:12:11;;;;;;;1.23;1.13;;;26.50;99.10;;;;;;4926892;29;20545;-77
2021/08/01 13:14:37;;;;;;;1.45;1.20;;;26.80;97.60;;;;;;4926008;29;20708;-77
2021/08/01 13:17:03;;;;;;;1.05;1.02;;;26.90;96.10;;;;;;4928229;29;20225;-78
2021/08/01 13:19:37;;;;;;;1.20;1.10;;;26.80;95.30;;;;;;4928104;29;20245;-77
2021/08/01 13:22:14;;;;;;;1.40;1.13;;;26.80;94.90;;;;;;4926690;29;20237;-77
2021/08/01 13:24:45;;;;;;;2.55;1.20;;;26.50;95.00;;;;;;4926159;29;20205;-77
2021/08/01 13:27:14;;;;;;;1.27;1.17;;;25.90;95.60;;;;;;4927280;29;20198;-79
2021/08/01 13:29:41;;;;;;;1.40;1.30;;;25.40;96.90;;;;;;4926278;29;20182;-80